sensor_id;sensor_type;location;lat;lon;timestamp;pressure;altitude;pressure_sealevel;temperature;humidity
64668;BME280;51077;42.716;23.344;2023-02-13T00:00:35;97091.66;;;3.34;57.16
64668;BME280;51077;42.716;23.344;2023-02-13T00:03:01;97093.88;;;3.39;58.16
64668;BME280;51077;42.716;23.344;2023-02-13T00:05:27;97108.56;;;3.42;58.35
64668;BME280;51077;42.716;23.344;2023-02-13T00:07:52;97100.00;;;3.43;58.03
64668;BME280;51077;42.716;23.344;2023-02-13T00:10:18;97103.47;;;3.44;57.97
64668;BME280;51077;42.716;23.344;2023-02-13T00:12:43;97096.13;;;3.44;57.62
64668;BME280;51077;42.716;23.344;2023-02-13T00:15:09;97098.84;;;3.44;57.65
64668;BME280;51077;42.716;23.344;2023-02-13T00:17:35;97108.56;;;3.42;57.69
64668;BME280;51077;42.716;23.344;2023-02-13T00:20:00;97117.16;;;3.40;57.23
64668;BME280;51077;42.716;23.344;2023-02-13T00:22:26;97105.53;;;3.40;57.14
64668;BME280;51077;42.716;23.344;2023-02-13T00:24:51;97104.72;;;3.39;56.99
64668;BME280;51077;42.716;23.344;2023-02-13T00:27:17;97105.53;;;3.40;57.14
64668;BME280;51077;42.716;23.344;2023-02-13T00:29:42;97099.75;;;3.38;57.19
64668;BME280;51077;42.716;23.344;2023-02-13T00:32:07;97110.25;;;3.36;57.13
64668;BME280;51077;42.716;23.344;2023-02-13T00:34:33;97107.53;;;3.36;57.17
64668;BME280;51077;42.716;23.344;2023-02-13T00:36:58;97111.41;;;3.35;57.01
64668;BME280;51077;42.716;23.344;2023-02-13T00:39:24;97111.84;;;3.33;56.42
64668;BME280;51077;42.716;23.344;2023-02-13T00:41:50;97108.38;;;3.33;56.81
64668;BME280;51077;42.716;23.344;2023-02-13T00:44:15;97120.00;;;3.33;56.66
64668;BME280;51077;42.716;23.344;2023-02-13T00:46:40;97113.38;;;3.34;56.28
64668;BME280;51077;42.716;23.344;2023-02-13T00:49:06;97107.94;;;3.34;56.43
64668;BME280;51077;42.716;23.344;2023-02-13T00:51:31;97114.13;;;3.35;56.26
64668;BME280;51077;42.716;23.344;2023-02-13T00:53:57;97118.41;;;3.36;56.27
64668;BME280;51077;42.716;23.344;2023-02-13T00:56:22;97123.03;;;3.35;56.02
64668;BME280;51077;42.716;23.344;2023-02-13T00:58:48;97125.00;;;3.35;55.96
64668;BME280;51077;42.716;23.344;2023-02-13T01:01:13;97120.00;;;3.33;56.03
64668;BME280;51077;42.716;23.344;2023-02-13T01:03:39;97122.72;;;3.33;55.60
64668;BME280;51077;42.716;23.344;2023-02-13T01:06:05;97126.94;;;3.34;55.98
64668;BME280;51077;42.716;23.344;2023-02-13T01:08:30;97123.91;;;3.32;55.71
64668;BME280;51077;42.716;23.344;2023-02-13T01:10:56;97123.91;;;3.32;55.66
64668;BME280;51077;42.716;23.344;2023-02-13T01:13:22;97125.09;;;3.31;55.38
64668;BME280;51077;42.716;23.344;2023-02-13T01:15:48;97119.66;;;3.31;55.68
64668;BME280;51077;42.716;23.344;2023-02-13T01:18:15;97120.81;;;3.30;55.56
64668;BME280;51077;42.716;23.344;2023-02-13T01:20:41;97123.97;;;3.28;55.64
64668;BME280;51077;42.716;23.344;2023-02-13T01:23:09;97127.09;;;3.27;55.19
64668;BME280;51077;42.716;23.344;2023-02-13T01:25:34;97135.63;;;3.25;55.37
64668;BME280;51077;42.716;23.344;2023-02-13T01:28:03;97124.03;;;3.25;55.25
64668;BME280;51077;42.716;23.344;2023-02-13T01:30:28;97133.78;;;3.22;54.98
64668;BME280;51077;42.716;23.344;2023-02-13T01:32:54;97137.25;;;3.23;54.94
64668;BME280;51077;42.716;23.344;2023-02-13T01:35:20;97133.00;;;3.22;55.10
64668;BME280;51077;42.716;23.344;2023-02-13T01:37:45;97134.19;;;3.21;55.09
64668;BME280;51077;42.716;23.344;2023-02-13T01:40:12;97135.78;;;3.18;54.79
64668;BME280;51077;42.716;23.344;2023-02-13T01:42:38;97135.78;;;3.18;54.91
64668;BME280;51077;42.716;23.344;2023-02-13T01:53:39;97137.38;;;3.16;54.51
64668;BME280;51077;42.716;23.344;2023-02-13T01:55:45;97142.81;;;3.16;54.49
64668;BME280;51077;42.716;23.344;2023-02-13T01:58:16;97144.00;;;3.15;54.54
64668;BME280;51077;42.716;23.344;2023-02-13T02:00:45;97138.56;;;3.15;54.66
64668;BME280;51077;42.716;23.344;2023-02-13T02:03:26;97145.19;;;3.14;54.19
64668;BME280;51077;42.716;23.344;2023-02-13T02:05:56;97144.75;;;3.15;54.26
64668;BME280;51077;42.716;23.344;2023-02-13T02:08:22;97139.34;;;3.15;54.34
64668;BME280;51077;42.716;23.344;2023-02-13T02:10:48;97134.72;;;3.12;54.23
64668;BME280;51077;42.716;23.344;2023-02-13T02:13:16;97133.63;;;3.10;54.09
64668;BME280;51077;42.716;23.344;2023-02-13T02:15:46;97134.78;;;3.09;53.98
64668;BME280;51077;42.716;23.344;2023-02-13T02:18:22;97130.97;;;3.06;54.22
64668;BME280;51077;42.716;23.344;2023-02-13T02:21:20;97127.91;;;3.04;54.57
64668;BME280;51077;42.716;23.344;2023-02-13T02:24:20;97136.91;;;3.01;54.57
64668;BME280;51077;42.716;23.344;2023-02-13T02:29:58;97133.81;;;2.99;54.63
64668;BME280;51077;42.716;23.344;2023-02-13T02:35:18;97145.09;;;2.97;54.94
64668;BME280;51077;42.716;23.344;2023-02-13T02:38:07;97147.03;;;2.97;54.87
64668;BME280;51077;42.716;23.344;2023-02-13T02:43:50;97159.41;;;2.98;54.62
64668;BME280;51077;42.716;23.344;2023-02-13T02:50:11;97164.41;;;2.99;54.43
64668;BME280;51077;42.716;23.344;2023-02-13T02:58:21;97170.31;;;2.94;54.57
64668;BME280;51077;42.716;23.344;2023-02-13T03:01:11;97170.00;;;2.92;54.50
64668;BME280;51077;42.716;23.344;2023-02-13T03:03:57;97163.00;;;2.91;54.56
64668;BME280;51077;42.716;23.344;2023-02-13T03:06:52;97165.72;;;2.91;54.55
64668;BME280;51077;42.716;23.344;2023-02-13T03:09:24;97169.22;;;2.92;54.27
64668;BME280;51077;42.716;23.344;2023-02-13T03:12:11;97164.63;;;2.89;54.17
64668;BME280;51077;42.716;23.344;2023-02-13T03:14:57;97169.28;;;2.88;54.33
64668;BME280;51077;42.716;23.344;2023-02-13T03:17:23;97166.97;;;2.87;53.96
64668;BME280;51077;42.716;23.344;2023-02-13T03:20:20;97168.16;;;2.86;54.15
64668;BME280;51077;42.716;23.344;2023-02-13T03:23:37;97172.06;;;2.85;54.15
64668;BME280;51077;42.716;23.344;2023-02-13T03:32:24;97170.97;;;2.78;53.87
64668;BME280;51077;42.716;23.344;2023-02-13T03:35:03;97175.63;;;2.78;53.95
64668;BME280;51077;42.716;23.344;2023-02-13T03:37:57;97176.47;;;2.75;54.01
64668;BME280;51077;42.716;23.344;2023-02-13T03:40:54;97169.50;;;2.74;53.54
64668;BME280;51077;42.716;23.344;2023-02-13T03:46:33;97174.22;;;2.70;54.02
64668;BME280;51077;42.716;23.344;2023-02-13T03:49:03;97171.94;;;2.68;53.95
64668;BME280;51077;42.716;23.344;2023-02-13T03:54:43;97170.47;;;2.64;53.67
64668;BME280;51077;42.716;23.344;2023-02-13T03:57:30;97171.28;;;2.61;53.45
64668;BME280;51077;42.716;23.344;2023-02-13T04:00:16;97170.56;;;2.57;53.35
64668;BME280;51077;42.716;23.344;2023-02-13T04:05:40;97167.94;;;2.53;53.38
64668;BME280;51077;42.716;23.344;2023-02-13T04:08:07;97166.81;;;2.50;53.57
64668;BME280;51077;42.716;23.344;2023-02-13T04:10:34;97166.03;;;2.50;53.55
64668;BME280;51077;42.716;23.344;2023-02-13T04:13:04;97160.25;;;2.48;53.24
64668;BME280;51077;42.716;23.344;2023-02-13T04:18:13;97172.69;;;2.45;53.31
64668;BME280;51077;42.716;23.344;2023-02-13T04:20:41;97170.78;;;2.42;53.27
64668;BME280;51077;42.716;23.344;2023-02-13T04:23:09;97176.63;;;2.41;53.26
64668;BME280;51077;42.716;23.344;2023-02-13T04:25:37;97182.44;;;2.39;53.49
64668;BME280;51077;42.716;23.344;2023-02-13T04:28:03;97175.09;;;2.40;53.22
64668;BME280;51077;42.716;23.344;2023-02-13T04:30:29;97175.91;;;2.37;53.19
64668;BME280;51077;42.716;23.344;2023-02-13T04:32:54;97183.28;;;2.36;53.39
64668;BME280;51077;42.716;23.344;2023-02-13T04:35:20;97177.75;;;2.43;57.23
64668;BME280;51077;42.716;23.344;2023-02-13T04:37:45;97184.28;;;2.46;57.60
64668;BME280;51077;42.716;23.344;2023-02-13T04:40:11;97178.44;;;2.47;57.28
64668;BME280;51077;42.716;23.344;2023-02-13T04:42:37;97167.28;;;2.45;56.95
64668;BME280;51077;42.716;23.344;2023-02-13T04:45:02;97167.69;;;2.44;57.06
64668;BME280;51077;42.716;23.344;2023-02-13T04:47:28;97173.88;;;2.44;56.79
64668;BME280;51077;42.716;23.344;2023-02-13T04:49:53;97183.16;;;2.43;56.50
64668;BME280;51077;42.716;23.344;2023-02-13T04:52:18;97185.09;;;2.43;56.22
64668;BME280;51077;42.716;23.344;2023-02-13T04:54:44;97182.41;;;2.43;55.87
64668;BME280;51077;42.716;23.344;2023-02-13T04:57:09;97183.16;;;2.43;56.15
64668;BME280;51077;42.716;23.344;2023-02-13T04:59:35;97189.38;;;2.44;55.60
64668;BME280;51077;42.716;23.344;2023-02-13T05:02:00;97192.09;;;2.44;55.63
64668;BME280;51077;42.716;23.344;2023-02-13T05:04:26;97182.41;;;2.43;55.31
64668;BME280;51077;42.716;23.344;2023-02-13T05:06:53;97205.63;;;2.44;55.20
64668;BME280;51077;42.716;23.344;2023-02-13T05:09:19;97202.09;;;2.47;55.00
64668;BME280;51077;42.716;23.344;2023-02-13T05:11:44;97193.19;;;2.46;55.18
64668;BME280;51077;42.716;23.344;2023-02-13T05:14:10;97188.53;;;2.47;54.81
64668;BME280;51077;42.716;23.344;2023-02-13T05:16:35;97198.56;;;2.50;54.58
64668;BME280;51077;42.716;23.344;2023-02-13T05:19:01;97203.22;;;2.49;54.53
64668;BME280;51077;42.716;23.344;2023-02-13T05:21:27;97210.94;;;2.51;54.12
64668;BME280;51077;42.716;23.344;2023-02-13T05:24:11;97208.22;;;2.51;54.05
64668;BME280;51077;42.716;23.344;2023-02-13T05:26:36;97215.59;;;2.50;53.97
64668;BME280;51077;42.716;23.344;2023-02-13T05:29:02;97211.34;;;2.49;53.81
64668;BME280;51077;42.716;23.344;2023-02-13T05:31:55;97205.94;;;2.49;53.82
64668;BME280;51077;42.716;23.344;2023-02-13T05:34:23;97203.97;;;2.50;53.69
64668;BME280;51077;42.716;23.344;2023-02-13T05:36:50;97216.00;;;2.49;53.55
64668;BME280;51077;42.716;23.344;2023-02-13T05:39:15;97220.25;;;2.50;53.39
64668;BME280;51077;42.716;23.344;2023-02-13T05:41:42;97219.47;;;2.49;53.23
64668;BME280;51077;42.716;23.344;2023-02-13T05:44:08;97222.94;;;2.50;53.22
64668;BME280;51077;42.716;23.344;2023-02-13T05:46:36;97224.09;;;2.53;53.43
64668;BME280;51077;42.716;23.344;2023-02-13T05:49:01;97233.75;;;2.54;53.10
64668;BME280;51077;42.716;23.344;2023-02-13T05:51:26;97227.91;;;2.55;52.97
64668;BME280;51077;42.716;23.344;2023-02-13T05:53:52;97233.28;;;2.59;52.91
64668;BME280;51077;42.716;23.344;2023-02-13T05:56:18;97225.09;;;2.62;53.03
64668;BME280;51077;42.716;23.344;2023-02-13T05:58:43;97219.63;;;2.66;52.72
64668;BME280;51077;42.716;23.344;2023-02-13T06:01:09;97230.38;;;2.69;52.43
64668;BME280;51077;42.716;23.344;2023-02-13T06:03:35;97226.88;;;2.72;52.75
64668;BME280;51077;42.716;23.344;2023-02-13T06:06:01;97230.72;;;2.75;52.20
64668;BME280;51077;42.716;23.344;2023-02-13T06:08:26;97233.75;;;2.77;52.18
64668;BME280;51077;42.716;23.344;2023-02-13T06:10:52;97237.94;;;2.82;52.43
64668;BME280;51077;42.716;23.344;2023-02-13T06:13:17;97237.91;;;2.85;52.14
64668;BME280;51077;42.716;23.344;2023-02-13T06:15:44;97248.69;;;2.89;51.93
64668;BME280;51077;42.716;23.344;2023-02-13T06:18:10;97242.44;;;2.92;51.75
64668;BME280;51077;42.716;23.344;2023-02-13T06:20:35;97243.56;;;2.94;52.00
64668;BME280;51077;42.716;23.344;2023-02-13T06:23:01;97245.78;;;2.99;51.86
64668;BME280;51077;42.716;23.344;2023-02-13T06:25:27;97253.88;;;3.03;51.58
64668;BME280;51077;42.716;23.344;2023-02-13T06:27:52;97248.41;;;3.07;51.73
64668;BME280;51077;42.716;23.344;2023-02-13T06:30:19;97246.38;;;3.11;51.61
64668;BME280;51077;42.716;23.344;2023-02-13T06:32:46;97251.34;;;3.16;51.42
64668;BME280;51077;42.716;23.344;2023-02-13T06:35:11;97254.75;;;3.20;51.56
64668;BME280;51077;42.716;23.344;2023-02-13T06:37:41;97251.56;;;3.25;51.12
64668;BME280;51077;42.716;23.344;2023-02-13T06:40:11;97256.50;;;3.30;51.16
64668;BME280;51077;42.716;23.344;2023-02-13T06:42:37;97258.34;;;3.37;51.06
64668;BME280;51077;42.716;23.344;2023-02-13T06:45:02;97259.06;;;3.41;51.45
64668;BME280;51077;42.716;23.344;2023-02-13T06:47:28;97262.81;;;3.47;50.77
64668;BME280;51077;42.716;23.344;2023-02-13T06:49:53;97260.72;;;3.55;50.61
64668;BME280;51077;42.716;23.344;2023-02-13T06:52:19;97257.91;;;3.62;50.67
64668;BME280;51077;42.716;23.344;2023-02-13T06:54:45;97250.72;;;3.71;50.62
64668;BME280;51077;42.716;23.344;2023-02-13T06:57:10;97250.09;;;3.84;50.28
64668;BME280;51077;42.716;23.344;2023-02-13T06:59:35;97259.56;;;3.95;50.15
64668;BME280;51077;42.716;23.344;2023-02-13T07:02:01;97259.97;;;4.14;49.84
64668;BME280;51077;42.716;23.344;2023-02-13T07:04:27;97256.31;;;4.40;49.81
64668;BME280;51077;42.716;23.344;2023-02-13T07:06:56;97256.75;;;4.71;49.35
64668;BME280;51077;42.716;23.344;2023-02-13T07:09:22;97257.28;;;4.99;48.80
64668;BME280;51077;42.716;23.344;2023-02-13T07:11:48;97253.50;;;5.25;48.50
64668;BME280;51077;42.716;23.344;2023-02-13T07:14:14;97252.00;;;5.53;47.88
64668;BME280;51077;42.716;23.344;2023-02-13T07:16:39;97253.28;;;5.78;47.62
64668;BME280;51077;42.716;23.344;2023-02-13T07:19:04;97252.50;;;5.94;47.52
64668;BME280;51077;42.716;23.344;2023-02-13T07:21:30;97263.84;;;6.05;47.05
64668;BME280;51077;42.716;23.344;2023-02-13T07:23:55;97262.13;;;6.11;46.78
64668;BME280;51077;42.716;23.344;2023-02-13T07:26:21;97267.03;;;6.16;47.06
64668;BME280;51077;42.716;23.344;2023-02-13T07:28:46;97266.59;;;6.18;46.82
64668;BME280;51077;42.716;23.344;2023-02-13T07:31:12;97268.16;;;6.19;46.68
64668;BME280;51077;42.716;23.344;2023-02-13T07:33:37;97257.91;;;6.23;46.59
64668;BME280;51077;42.716;23.344;2023-02-13T07:36:03;97257.38;;;6.28;46.35
64668;BME280;51077;42.716;23.344;2023-02-13T07:38:30;97266.34;;;6.41;46.23
64668;BME280;51077;42.716;23.344;2023-02-13T07:41:02;97260.34;;;6.72;46.02
64668;BME280;51077;42.716;23.344;2023-02-13T07:43:29;97265.78;;;6.97;45.59
64668;BME280;51077;42.716;23.344;2023-02-13T07:45:59;97265.97;;;7.16;45.50
64668;BME280;51077;42.716;23.344;2023-02-13T07:48:25;97263.63;;;7.27;45.31
64668;BME280;51077;42.716;23.344;2023-02-13T07:50:58;97260.38;;;7.32;45.25
64668;BME280;51077;42.716;23.344;2023-02-13T07:53:24;97263.75;;;7.36;44.82
64668;BME280;51077;42.716;23.344;2023-02-13T07:55:49;97261.00;;;7.36;44.62
64668;BME280;51077;42.716;23.344;2023-02-13T07:58:15;97261.00;;;7.36;44.67
64668;BME280;51077;42.716;23.344;2023-02-13T08:00:40;97268.88;;;7.34;45.05
64668;BME280;51077;42.716;23.344;2023-02-13T08:03:06;97270.94;;;7.30;45.36
64668;BME280;51077;42.716;23.344;2023-02-13T08:05:32;97271.41;;;7.28;45.21
64668;BME280;51077;42.716;23.344;2023-02-13T08:07:57;97264.09;;;7.25;44.95
64668;BME280;51077;42.716;23.344;2023-02-13T08:10:23;97265.28;;;7.24;45.24
64668;BME280;51077;42.716;23.344;2023-02-13T08:13:08;97263.88;;;7.20;45.29
64668;BME280;51077;42.716;23.344;2023-02-13T08:15:33;97260.38;;;7.19;45.27
64668;BME280;51077;42.716;23.344;2023-02-13T08:17:59;97258.09;;;7.18;45.20
64668;BME280;51077;42.716;23.344;2023-02-13T08:20:24;97263.53;;;7.18;45.43
64668;BME280;51077;42.716;23.344;2023-02-13T08:22:50;97255.34;;;7.18;45.38
64668;BME280;51077;42.716;23.344;2023-02-13T08:25:15;97260.28;;;7.23;45.36
64668;BME280;51077;42.716;23.344;2023-02-13T08:27:41;97255.78;;;7.29;45.28
64668;BME280;51077;42.716;23.344;2023-02-13T08:30:08;97265.81;;;7.32;45.37
64668;BME280;51077;42.716;23.344;2023-02-13T08:32:33;97267.22;;;7.37;45.35
64668;BME280;51077;42.716;23.344;2023-02-13T08:34:59;97261.66;;;7.40;45.58
64668;BME280;51077;42.716;23.344;2023-02-13T08:37:24;97261.66;;;7.40;45.53
64668;BME280;51077;42.716;23.344;2023-02-13T08:39:50;97264.69;;;7.42;45.17
64668;BME280;51077;42.716;23.344;2023-02-13T08:42:15;97265.47;;;7.43;45.06
64668;BME280;51077;42.716;23.344;2023-02-13T08:44:41;97262.72;;;7.43;45.42
64668;BME280;51077;42.716;23.344;2023-02-13T08:47:07;97261.19;;;7.42;45.30
64668;BME280;51077;42.716;23.344;2023-02-13T08:49:33;97263.47;;;7.43;45.52
64668;BME280;51077;42.716;23.344;2023-02-13T08:51:59;97258.34;;;7.45;45.63
64668;BME280;51077;42.716;23.344;2023-02-13T08:54:25;97251.22;;;7.48;45.07
64668;BME280;51077;42.716;23.344;2023-02-13T08:56:53;97245.66;;;7.51;45.27
64668;BME280;51077;42.716;23.344;2023-02-13T08:59:19;97255.25;;;7.56;45.35
64668;BME280;51077;42.716;23.344;2023-02-13T09:01:44;97242.69;;;7.59;45.07
64668;BME280;51077;42.716;23.344;2023-02-13T09:04:10;97248.78;;;7.63;44.80
64668;BME280;51077;42.716;23.344;2023-02-13T09:06:36;97254.91;;;7.67;45.06
64668;BME280;51077;42.716;23.344;2023-02-13T09:09:01;97247.75;;;7.69;44.98
64668;BME280;51077;42.716;23.344;2023-02-13T09:11:28;97245.66;;;7.73;44.88
64668;BME280;51077;42.716;23.344;2023-02-13T09:13:54;97244.34;;;7.78;44.45
64668;BME280;51077;42.716;23.344;2023-02-13T09:16:19;97248.59;;;7.79;44.42
64668;BME280;51077;42.716;23.344;2023-02-13T09:18:49;97252.75;;;7.84;44.61
64668;BME280;51077;42.716;23.344;2023-02-13T09:21:15;97250.31;;;7.86;44.48
64668;BME280;51077;42.716;23.344;2023-02-13T09:23:41;97256.88;;;7.88;44.57
64668;BME280;51077;42.716;23.344;2023-02-13T09:26:12;97245.78;;;7.92;44.73
64668;BME280;51077;42.716;23.344;2023-02-13T09:28:39;97248.41;;;7.95;44.55
64668;BME280;51077;42.716;23.344;2023-02-13T09:31:11;97250.56;;;8.00;44.38
64668;BME280;51077;42.716;23.344;2023-02-13T09:33:39;97246.19;;;8.03;44.24
64668;BME280;51077;42.716;23.344;2023-02-13T09:36:06;97239.81;;;8.06;44.37
64668;BME280;51077;42.716;23.344;2023-02-13T09:38:33;97236.94;;;8.10;44.33
64668;BME280;51077;42.716;23.344;2023-02-13T09:41:06;97236.69;;;8.17;43.98
64668;BME280;51077;42.716;23.344;2023-02-13T09:43:48;97231.59;;;8.28;44.13
64668;BME280;51077;42.716;23.344;2023-02-13T09:46:19;97229.84;;;8.43;43.69
64668;BME280;51077;42.716;23.344;2023-02-13T09:48:48;97219.13;;;8.58;43.44
64668;BME280;51077;42.716;23.344;2023-02-13T09:51:18;97227.25;;;8.71;43.08
64668;BME280;51077;42.716;23.344;2023-02-13T09:53:56;97215.38;;;8.83;43.17
64668;BME280;51077;42.716;23.344;2023-02-13T10:01:48;97208.78;;;9.21;42.67
64668;BME280;51077;42.716;23.344;2023-02-13T10:05:02;97199.34;;;9.40;42.46
64668;BME280;51077;42.716;23.344;2023-02-13T10:12:52;97200.63;;;10.09;41.08
64668;BME280;51077;42.716;23.344;2023-02-13T10:18:02;97184.06;;;10.79;39.79
64668;BME280;51077;42.716;23.344;2023-02-13T10:20:42;97177.97;;;11.47;38.96
64668;BME280;51077;42.716;23.344;2023-02-13T10:23:26;97181.06;;;12.23;37.85
64668;BME280;51077;42.716;23.344;2023-02-13T10:26:38;97165.75;;;13.07;36.84
64668;BME280;51077;42.716;23.344;2023-02-13T10:28:52;97163.50;;;13.98;35.57
64668;BME280;51077;42.716;23.344;2023-02-13T10:31:42;97164.63;;;14.81;34.82
64668;BME280;51077;42.716;23.344;2023-02-13T10:34:14;97158.91;;;15.55;33.99
64668;BME280;51077;42.716;23.344;2023-02-13T10:36:44;97160.78;;;16.26;33.02
64668;BME280;51077;42.716;23.344;2023-02-13T10:41:54;97148.34;;;17.58;31.45
64668;BME280;51077;42.716;23.344;2023-02-13T10:50:29;97139.47;;;19.16;29.06
64668;BME280;51077;42.716;23.344;2023-02-13T11:00:59;97124.28;;;20.70;27.01
64668;BME280;51077;42.716;23.344;2023-02-13T11:03:28;97113.31;;;20.98;26.50
64668;BME280;51077;42.716;23.344;2023-02-13T11:05:55;97120.91;;;21.24;25.92
64668;BME280;51077;42.716;23.344;2023-02-13T11:08:23;97110.06;;;21.47;25.79
64668;BME280;51077;42.716;23.344;2023-02-13T11:10:49;97099.31;;;21.72;25.70
64668;BME280;51077;42.716;23.344;2023-02-13T11:13:18;97093.91;;;22.08;25.07
64668;BME280;51077;42.716;23.344;2023-02-13T11:16:05;97101.88;;;22.46;24.88
64668;BME280;51077;42.716;23.344;2023-02-13T11:18:33;97089.06;;;22.79;24.78
64668;BME280;51077;42.716;23.344;2023-02-13T11:21:08;97082.00;;;23.15;24.20
64668;BME280;51077;42.716;23.344;2023-02-13T11:26:08;97073.75;;;23.61;23.52
64668;BME280;51077;42.716;23.344;2023-02-13T11:28:44;97067.09;;;23.79;23.29
64668;BME280;51077;42.716;23.344;2023-02-13T11:31:15;97055.53;;;23.90;22.67
64668;BME280;51077;42.716;23.344;2023-02-13T11:33:44;97049.38;;;23.99;22.69
64668;BME280;51077;42.716;23.344;2023-02-13T11:36:15;97049.34;;;24.22;22.70
64668;BME280;51077;42.716;23.344;2023-02-13T11:38:41;97042.81;;;24.50;22.69
64668;BME280;51077;42.716;23.344;2023-02-13T11:43:48;97039.13;;;25.03;22.02
64668;BME280;51077;42.716;23.344;2023-02-13T11:48:42;97017.91;;;25.50;21.15
64668;BME280;51077;42.716;23.344;2023-02-13T11:51:07;97018.63;;;25.58;21.07
64668;BME280;51077;42.716;23.344;2023-02-13T11:53:38;97018.53;;;25.74;20.98
64668;BME280;51077;42.716;23.344;2023-02-13T11:56:13;96996.28;;;25.93;20.48
64668;BME280;51077;42.716;23.344;2023-02-13T11:58:39;96994.84;;;26.10;20.76
64668;BME280;51077;42.716;23.344;2023-02-13T12:04:05;96988.69;;;26.46;20.47
64668;BME280;51077;42.716;23.344;2023-02-13T12:06:32;96990.44;;;26.59;20.08
64668;BME280;51077;42.716;23.344;2023-02-13T12:09:13;96991.78;;;26.75;20.08
64668;BME280;51077;42.716;23.344;2023-02-13T12:11:50;96981.50;;;26.87;19.82
64668;BME280;51077;42.716;23.344;2023-02-13T12:14:23;96978.75;;;26.97;19.81
64668;BME280;51077;42.716;23.344;2023-02-13T12:17:05;96977.81;;;27.12;19.67
64668;BME280;51077;42.716;23.344;2023-02-13T12:19:46;96969.88;;;27.18;19.36
64668;BME280;51077;42.716;23.344;2023-02-13T12:22:21;96971.34;;;27.19;18.96
64668;BME280;51077;42.716;23.344;2023-02-13T12:32:58;96959.00;;;27.41;18.91
64668;BME280;51077;42.716;23.344;2023-02-13T12:36:01;96961.25;;;27.43;18.64
64668;BME280;51077;42.716;23.344;2023-02-13T12:46:53;96950.09;;;27.35;18.32
64668;BME280;51077;42.716;23.344;2023-02-13T12:49:57;96943.56;;;27.42;18.25
64668;BME280;51077;42.716;23.344;2023-02-13T13:20:51;96908.47;;;26.81;18.05
64668;BME280;51077;42.716;23.344;2023-02-13T13:24:08;96899.09;;;26.69;18.02
64668;BME280;51077;42.716;23.344;2023-02-13T13:26:42;96901.50;;;26.55;18.05
64668;BME280;51077;42.716;23.344;2023-02-13T13:29:17;96897.69;;;26.43;17.42
64668;BME280;51077;42.716;23.344;2023-02-13T13:31:53;96905.47;;;26.35;18.22
64668;BME280;51077;42.716;23.344;2023-02-13T13:34:24;96906.38;;;26.20;17.84
64668;BME280;51077;42.716;23.344;2023-02-13T13:37:03;96900.09;;;26.12;18.14
64668;BME280;51077;42.716;23.344;2023-02-13T13:44:52;96896.91;;;25.66;18.36
64668;BME280;51077;42.716;23.344;2023-02-13T13:47:44;96891.25;;;25.48;18.61
64668;BME280;51077;42.716;23.344;2023-02-13T13:50:19;96896.06;;;25.30;18.55
64668;BME280;51077;42.716;23.344;2023-02-13T13:53:05;96898.06;;;25.13;18.73
64668;BME280;51077;42.716;23.344;2023-02-13T13:58:41;96896.56;;;24.71;19.00
64668;BME280;51077;42.716;23.344;2023-02-13T14:03:38;96886.59;;;24.30;19.33
64668;BME280;51077;42.716;23.344;2023-02-13T14:06:07;96882.34;;;24.14;19.59
64668;BME280;51077;42.716;23.344;2023-02-13T14:11:06;96887.81;;;23.81;19.61
64668;BME280;51077;42.716;23.344;2023-02-13T14:13:48;96876.41;;;23.64;19.69
64668;BME280;51077;42.716;23.344;2023-02-13T14:16:38;96878.84;;;23.44;19.76
64668;BME280;51077;42.716;23.344;2023-02-13T14:19:05;96879.22;;;23.25;19.94
64668;BME280;51077;42.716;23.344;2023-02-13T14:21:45;96873.56;;;23.02;20.06
64668;BME280;51077;42.716;23.344;2023-02-13T14:24:11;96868.28;;;22.83;20.40
64668;BME280;51077;42.716;23.344;2023-02-13T14:26:38;96863.41;;;22.69;20.68
64668;BME280;51077;42.716;23.344;2023-02-13T14:31:49;96861.41;;;22.33;20.88
64668;BME280;51077;42.716;23.344;2023-02-13T14:34:19;96853.63;;;22.11;20.64
64668;BME280;51077;42.716;23.344;2023-02-13T14:39:32;96859.53;;;21.71;21.32
64668;BME280;51077;42.716;23.344;2023-02-13T14:42:26;96866.47;;;21.49;21.20
64668;BME280;51077;42.716;23.344;2023-02-13T14:44:55;96855.09;;;21.26;21.87
64668;BME280;51077;42.716;23.344;2023-02-13T14:49:48;96858.19;;;20.80;22.52
64668;BME280;51077;42.716;23.344;2023-02-13T14:52:18;96858.38;;;20.62;23.06
64668;BME280;51077;42.716;23.344;2023-02-13T14:54:53;96854.75;;;20.40;23.03
64668;BME280;51077;42.716;23.344;2023-02-13T14:57:28;96855.03;;;20.16;23.33
64668;BME280;51077;42.716;23.344;2023-02-13T15:00:12;96858.97;;;19.94;23.59
64668;BME280;51077;42.716;23.344;2023-02-13T15:02:45;96860.50;;;19.68;23.70
64668;BME280;51077;42.716;23.344;2023-02-13T15:05:15;96850.25;;;19.44;23.65
64668;BME280;51077;42.716;23.344;2023-02-13T15:13:01;96849.19;;;18.70;24.36
64668;BME280;51077;42.716;23.344;2023-02-13T15:15:31;96849.22;;;18.45;24.48
64668;BME280;51077;42.716;23.344;2023-02-13T15:18:00;96846.00;;;18.22;24.69
64668;BME280;51077;42.716;23.344;2023-02-13T15:20:29;96851.09;;;17.99;24.87
64668;BME280;51077;42.716;23.344;2023-02-13T15:22:57;96855.91;;;17.74;25.14
64668;BME280;51077;42.716;23.344;2023-02-13T15:25:41;96852.13;;;17.47;25.37
64668;BME280;51077;42.716;23.344;2023-02-13T15:28:17;96858.19;;;17.21;25.56
64668;BME280;51077;42.716;23.344;2023-02-13T15:31:36;96847.53;;;16.95;25.92
64668;BME280;51077;42.716;23.344;2023-02-13T15:33:45;96862.09;;;16.66;26.15
64668;BME280;51077;42.716;23.344;2023-02-13T15:36:17;96863.25;;;16.40;26.28
64668;BME280;51077;42.716;23.344;2023-02-13T15:38:43;96865.16;;;16.15;26.33
64668;BME280;51077;42.716;23.344;2023-02-13T15:41:17;96865.50;;;15.89;26.96
64668;BME280;51077;42.716;23.344;2023-02-13T15:43:48;96867.31;;;15.64;27.08
64668;BME280;51077;42.716;23.344;2023-02-13T15:46:26;96864.31;;;15.40;27.04
64668;BME280;51077;42.716;23.344;2023-02-13T15:48:53;96874.38;;;15.15;27.57
64668;BME280;51077;42.716;23.344;2023-02-13T15:51:21;96866.84;;;14.93;27.83